Time;durP1;ratioP1;P1;durP2;ratioP2;P2;SDS_P1;SDS_P2;PMS_P1;PMS_P2;Temp;Humidity;BMP_temperature;BMP_pressure;BME280_temperature;BME280_humidity;BME280_pressure;Samples;Min_cycle;Max_cycle;Signal;HPM_P1;HPM_P2
2021/08/17 00:00:45;;;;;;;8.05;4.63;;;13.00;99.90;;;;;;5074055;28;20063;-77
2021/08/17 00:03:11;;;;;;;6.07;4.25;;;13.10;99.90;;;;;;5084847;28;20403;-77
2021/08/17 00:05:37;;;;;;;6.88;4.88;;;13.20;99.90;;;;;;5101963;28;20054;-77
2021/08/17 00:08:03;;;;;;;9.45;4.85;;;13.20;99.90;;;;;;5097543;28;20021;-77
2021/08/17 00:10:29;;;;;;;6.82;4.15;;;13.20;99.90;;;;;;5073836;28;20031;-76
2021/08/17 00:12:55;;;;;;;5.55;4.00;;;13.10;99.90;;;;;;5071709;28;20476;-77
2021/08/17 00:15:20;;;;;;;7.75;4.57;;;13.10;99.90;;;;;;5071650;28;20017;-76
2021/08/17 00:17:46;;;;;;;6.65;4.13;;;13.10;99.90;;;;;;5072757;28;20021;-77
2021/08/17 00:20:13;;;;;;;6.80;4.50;;;13.00;99.90;;;;;;5072299;28;20476;-79
2021/08/17 00:22:38;;;;;;;5.05;4.03;;;13.00;99.90;;;;;;5071166;28;20510;-76
2021/08/17 00:25:06;;;;;;;6.30;4.32;;;13.00;99.90;;;;;;5071401;28;20029;-77
2021/08/17 00:27:32;;;;;;;9.02;4.47;;;13.00;99.90;;;;;;5071304;28;20423;-77
2021/08/17 00:29:58;;;;;;;7.05;4.82;;;13.00;99.90;;;;;;5072406;28;20120;-77
2021/08/17 00:32:24;;;;;;;6.55;4.40;;;13.00;99.90;;;;;;5072609;28;20036;-76
2021/08/17 00:34:49;;;;;;;6.97;4.90;;;13.10;99.90;;;;;;5071131;28;20040;-77
2021/08/17 00:37:18;;;;;;;4.97;3.88;;;13.10;99.90;;;;;;5071128;28;20079;-78
2021/08/17 00:39:44;;;;;;;9.40;5.20;;;13.00;99.90;;;;;;5072498;28;20029;-77
2021/08/17 00:42:10;;;;;;;5.68;4.70;;;13.10;99.90;;;;;;5072356;28;20526;-76
2021/08/17 00:44:35;;;;;;;6.70;4.72;;;13.10;99.90;;;;;;5072392;28;20028;-78
2021/08/17 00:47:01;;;;;;;6.88;4.55;;;13.10;99.90;;;;;;5070988;28;20384;-77
2021/08/17 00:49:31;;;;;;;8.52;5.78;;;13.10;99.90;;;;;;5072205;28;20033;-77
2021/08/17 00:51:59;;;;;;;7.28;5.20;;;13.20;99.90;;;;;;5054439;28;20431;-77
2021/08/17 00:54:26;;;;;;;6.65;4.70;;;13.20;99.90;;;;;;5052113;28;20029;-78
2021/08/17 00:56:59;;;;;;;13.07;4.80;;;13.20;99.90;;;;;;5050820;28;20021;-77
2021/08/17 00:59:29;;;;;;;6.82;4.93;;;13.20;99.90;;;;;;5050607;28;20459;-77
2021/08/17 01:01:55;;;;;;;6.28;4.22;;;13.30;99.90;;;;;;5081461;28;20027;-77
2021/08/17 01:04:21;;;;;;;6.53;4.05;;;13.20;99.90;;;;;;5092372;28;20024;-77
2021/08/17 01:06:46;;;;;;;5.22;3.95;;;13.20;99.90;;;;;;5090727;28;20024;-76
2021/08/17 01:09:12;;;;;;;5.97;4.43;;;13.10;99.90;;;;;;5082762;28;20032;-76
2021/08/17 01:11:41;;;;;;;6.15;4.85;;;13.00;99.90;;;;;;5071083;28;20029;-77
2021/08/17 01:14:07;;;;;;;5.05;4.03;;;13.00;99.90;;;;;;5074027;28;20103;-78
2021/08/17 01:16:33;;;;;;;6.25;4.20;;;13.00;99.90;;;;;;5070449;28;20067;-76
2021/08/17 01:18:58;;;;;;;7.63;4.43;;;12.90;99.90;;;;;;5072419;28;20071;-77
2021/08/17 01:21:24;;;;;;;6.13;4.78;;;12.90;99.90;;;;;;5073291;28;20116;-76
2021/08/17 01:23:50;;;;;;;5.80;4.70;;;13.00;99.90;;;;;;5072135;28;20029;-78
2021/08/17 01:26:15;;;;;;;6.65;4.75;;;12.80;99.90;;;;;;5071705;28;20057;-76
2021/08/17 01:28:41;;;;;;;6.60;4.68;;;12.70;99.90;;;;;;5072031;28;20578;-77
2021/08/17 01:31:15;;;;;;;7.20;5.20;;;12.60;99.90;;;;;;5071848;28;20024;-76
2021/08/17 01:33:41;;;;;;;6.43;4.28;;;12.70;99.90;;;;;;5075441;28;20135;-76
2021/08/17 01:36:07;;;;;;;9.13;5.25;;;12.60;99.90;;;;;;5074412;28;20448;-77
2021/08/17 01:38:32;;;;;;;6.10;5.18;;;12.60;99.90;;;;;;5074766;28;20024;-77
2021/08/17 01:40:58;;;;;;;6.07;4.53;;;12.50;99.90;;;;;;5074634;28;20094;-76
2021/08/17 01:43:24;;;;;;;8.25;4.18;;;12.50;99.90;;;;;;5075831;28;20422;-76
2021/08/17 01:45:57;;;;;;;6.55;4.22;;;12.40;99.90;;;;;;5074537;28;20433;-76
2021/08/17 01:48:28;;;;;;;5.28;4.15;;;12.20;99.90;;;;;;5075467;28;20554;-76
2021/08/17 01:50:53;;;;;;;6.07;4.57;;;12.20;99.90;;;;;;5067457;28;20036;-76
2021/08/17 01:53:21;;;;;;;8.20;4.40;;;12.10;99.90;;;;;;5055843;28;20021;-77
2021/08/17 01:55:47;;;;;;;8.77;4.85;;;12.10;99.90;;;;;;5054373;28;20029;-76
2021/08/17 01:58:12;;;;;;;9.00;4.93;;;12.10;99.90;;;;;;5055310;28;20495;-79
2021/08/17 02:00:38;;;;;;;6.95;4.75;;;12.10;99.90;;;;;;5071725;28;20028;-76
2021/08/17 02:03:03;;;;;;;7.97;4.82;;;12.20;99.90;;;;;;5087102;28;20031;-76
2021/08/17 02:05:29;;;;;;;7.40;4.18;;;12.10;99.90;;;;;;5096079;28;20059;-77
2021/08/17 02:07:56;;;;;;;9.38;5.50;;;12.10;99.90;;;;;;5114450;28;20012;-77
2021/08/17 02:10:22;;;;;;;7.65;4.63;;;12.10;99.90;;;;;;5093533;28;20040;-76
2021/08/17 02:12:47;;;;;;;7.35;5.03;;;12.10;99.90;;;;;;5075113;28;20380;-77
2021/08/17 02:15:13;;;;;;;7.63;4.47;;;12.00;99.90;;;;;;5075064;28;20077;-77
2021/08/17 02:17:38;;;;;;;7.88;4.90;;;11.90;99.90;;;;;;5073617;28;20028;-75
2021/08/17 02:20:05;;;;;;;8.70;4.43;;;11.90;99.90;;;;;;5074817;28;20025;-77
2021/08/17 02:22:31;;;;;;;5.57;4.60;;;11.90;99.90;;;;;;5074853;28;20516;-78
2021/08/17 02:24:56;;;;;;;6.72;5.65;;;12.00;99.90;;;;;;5074832;28;20063;-76
2021/08/17 02:27:22;;;;;;;6.50;4.68;;;12.00;99.90;;;;;;5074708;28;20032;-76
2021/08/17 02:29:47;;;;;;;6.35;4.78;;;12.00;99.90;;;;;;5074755;28;20032;-77
2021/08/17 02:32:13;;;;;;;6.30;4.72;;;12.00;99.90;;;;;;5074692;28;20096;-77
2021/08/17 02:34:38;;;;;;;7.53;4.70;;;12.00;99.90;;;;;;5073304;28;20453;-76
2021/08/17 02:37:04;;;;;;;6.88;4.07;;;12.00;99.90;;;;;;5074462;28;20025;-77
2021/08/17 02:39:29;;;;;;;7.55;4.57;;;12.00;99.90;;;;;;5073357;28;20024;-79
2021/08/17 02:41:55;;;;;;;7.38;4.78;;;11.90;99.90;;;;;;5074528;28;20036;-76
2021/08/17 02:44:21;;;;;;;7.55;4.43;;;11.90;99.90;;;;;;5073676;28;20028;-77
2021/08/17 02:46:46;;;;;;;8.45;4.53;;;11.90;99.90;;;;;;5061949;28;20044;-78
2021/08/17 02:49:12;;;;;;;6.70;4.22;;;11.90;99.90;;;;;;5072811;28;20493;-77
2021/08/17 02:51:37;;;;;;;5.75;4.78;;;11.90;99.90;;;;;;5060411;28;20094;-75
2021/08/17 02:54:03;;;;;;;5.85;4.30;;;12.00;99.90;;;;;;5054358;28;20023;-77
2021/08/17 02:56:29;;;;;;;6.93;4.65;;;11.90;99.90;;;;;;5057232;28;20013;-77
2021/08/17 02:58:54;;;;;;;5.65;4.32;;;12.00;99.90;;;;;;5072429;28;20032;-77
2021/08/17 03:01:20;;;;;;;7.38;4.22;;;11.90;99.90;;;;;;5076364;28;20070;-76
2021/08/17 03:03:45;;;;;;;7.32;4.60;;;11.90;99.90;;;;;;5091912;28;20036;-77
2021/08/17 03:06:11;;;;;;;5.65;4.22;;;11.90;99.90;;;;;;5079392;28;20032;-76
2021/08/17 03:08:36;;;;;;;6.40;3.80;;;12.10;99.90;;;;;;5074130;28;20036;-76
2021/08/17 03:11:04;;;;;;;6.15;4.53;;;12.10;99.90;;;;;;5073871;28;20021;-75
2021/08/17 03:13:30;;;;;;;7.03;4.20;;;12.10;99.90;;;;;;5072520;28;20031;-76
2021/08/17 03:15:56;;;;;;;6.03;3.90;;;11.90;99.90;;;;;;5073699;28;20111;-76
2021/08/17 03:18:22;;;;;;;9.20;4.22;;;11.90;99.90;;;;;;5073959;28;20025;-76
2021/08/17 03:20:48;;;;;;;7.53;4.75;;;11.90;99.90;;;;;;5072566;28;20485;-76
2021/08/17 03:23:14;;;;;;;6.15;4.18;;;11.90;99.90;;;;;;5073891;28;20037;-77
2021/08/17 03:25:41;;;;;;;8.20;4.40;;;11.90;99.90;;;;;;5073723;28;20028;-76
2021/08/17 03:28:06;;;;;;;5.70;4.07;;;11.80;99.90;;;;;;5072465;28;20037;-76
2021/08/17 03:30:32;;;;;;;6.05;4.22;;;11.70;99.90;;;;;;5072247;28;20357;-77
2021/08/17 03:32:57;;;;;;;6.55;3.95;;;11.80;99.90;;;;;;5073767;28;20073;-77
2021/08/17 03:35:24;;;;;;;6.63;4.10;;;11.70;99.90;;;;;;5074454;28;20020;-77
2021/08/17 03:37:50;;;;;;;7.20;4.25;;;11.70;99.90;;;;;;5074313;28;20018;-76
2021/08/17 03:40:19;;;;;;;6.63;3.88;;;12.00;99.90;;;;;;5072814;28;20542;-77
2021/08/17 03:42:45;;;;;;;6.03;4.82;;;12.00;99.90;;;;;;5076228;28;20017;-75
2021/08/17 03:45:13;;;;;;;11.15;3.88;;;11.90;99.90;;;;;;5075342;28;20484;-77
2021/08/17 03:47:39;;;;;;;9.40;4.35;;;12.00;99.90;;;;;;5074222;28;20024;-76
2021/08/17 03:50:06;;;;;;;10.48;4.13;;;11.90;99.90;;;;;;5073800;28;20475;-76
2021/08/17 03:52:32;;;;;;;6.00;3.40;;;11.90;99.90;;;;;;5073458;28;20103;-77
2021/08/17 03:54:57;;;;;;;6.68;3.80;;;11.80;99.90;;;;;;5071862;28;20101;-76
2021/08/17 03:57:23;;;;;;;7.38;3.85;;;11.70;99.90;;;;;;5072943;28;20185;-77
2021/08/17 03:59:48;;;;;;;6.63;3.97;;;11.70;99.90;;;;;;5065118;28;20552;-76
2021/08/17 04:02:14;;;;;;;7.65;3.47;;;11.80;99.90;;;;;;5084799;28;20365;-77
2021/08/17 04:04:39;;;;;;;5.10;4.20;;;12.00;99.90;;;;;;5093255;28;20033;-76
2021/08/17 04:07:05;;;;;;;10.07;3.83;;;12.00;99.90;;;;;;5092830;28;20069;-76
2021/08/17 04:09:30;;;;;;;5.13;3.70;;;11.80;99.90;;;;;;5093159;28;20103;-77
2021/08/17 04:11:56;;;;;;;6.55;3.83;;;11.80;99.90;;;;;;5092982;28;20028;-76
2021/08/17 04:14:21;;;;;;;5.55;3.90;;;11.90;99.90;;;;;;5085759;28;20021;-75
2021/08/17 04:16:47;;;;;;;4.90;3.85;;;12.00;99.90;;;;;;5071347;28;20115;-77
2021/08/17 04:19:13;;;;;;;8.23;4.78;;;11.90;99.90;;;;;;5071522;28;20021;-76
2021/08/17 04:21:38;;;;;;;6.30;4.00;;;11.80;99.90;;;;;;5071535;28;20021;-77
2021/08/17 04:24:04;;;;;;;11.85;5.43;;;11.70;99.90;;;;;;5071560;28;20510;-75
2021/08/17 04:26:29;;;;;;;5.53;3.53;;;11.70;99.90;;;;;;5072655;28;20439;-76
2021/08/17 04:28:55;;;;;;;9.10;5.43;;;11.60;99.90;;;;;;5073170;28;20503;-77
2021/08/17 04:31:21;;;;;;;7.45;4.22;;;11.60;99.90;;;;;;5073596;28;20050;-77
2021/08/17 04:33:46;;;;;;;4.47;3.53;;;11.50;99.90;;;;;;5072497;28;20506;-76
2021/08/17 04:36:12;;;;;;;6.50;4.45;;;11.50;99.90;;;;;;5071518;28;20482;-76
2021/08/17 04:38:38;;;;;;;8.40;4.45;;;11.70;99.90;;;;;;5071228;28;20059;-76
2021/08/17 04:41:03;;;;;;;6.30;4.03;;;11.80;99.90;;;;;;5072998;28;20384;-76
2021/08/17 04:43:29;;;;;;;8.23;3.88;;;11.70;99.90;;;;;;5072630;28;20044;-76
2021/08/17 04:45:54;;;;;;;9.13;4.13;;;11.90;99.90;;;;;;5071429;28;20036;-76
2021/08/17 04:48:20;;;;;;;4.78;3.80;;;12.00;99.90;;;;;;5072076;28;20021;-76
2021/08/17 04:50:45;;;;;;;6.32;3.90;;;12.00;99.90;;;;;;5071960;28;20024;-77
2021/08/17 04:53:11;;;;;;;5.45;3.88;;;12.10;99.90;;;;;;5072107;28;20020;-78
2021/08/17 04:55:37;;;;;;;6.03;4.82;;;12.10;99.90;;;;;;5072010;28;20419;-75
2021/08/17 04:58:04;;;;;;;4.80;4.03;;;12.10;99.90;;;;;;5070579;28;20013;-77
2021/08/17 05:00:30;;;;;;;3.75;3.28;;;12.20;99.90;;;;;;5071163;28;20047;-76
2021/08/17 05:02:56;;;;;;;7.88;4.05;;;12.20;99.90;;;;;;5083832;28;20063;-76
2021/08/17 05:05:22;;;;;;;7.13;4.40;;;12.10;99.90;;;;;;5091935;28;20052;-76
2021/08/17 05:07:49;;;;;;;6.20;4.03;;;12.00;99.90;;;;;;5090333;28;20028;-76
2021/08/17 05:10:16;;;;;;;5.95;3.92;;;12.20;99.90;;;;;;5090692;28;20085;-77
2021/08/17 05:12:42;;;;;;;6.90;4.32;;;12.10;99.90;;;;;;5090643;28;20020;-77
2021/08/17 05:15:09;;;;;;;6.43;3.53;;;12.20;99.90;;;;;;5088695;28;20039;-76
2021/08/17 05:17:35;;;;;;;6.78;4.10;;;12.50;99.90;;;;;;5071716;28;20024;-77
2021/08/17 05:20:00;;;;;;;6.82;4.20;;;12.90;99.90;;;;;;5071873;28;20025;-77
2021/08/17 05:22:26;;;;;;;8.70;3.40;;;13.50;99.90;;;;;;5071739;28;20601;-77
2021/08/17 05:24:52;;;;;;;7.03;3.45;;;14.20;99.90;;;;;;5070490;28;20052;-76
2021/08/17 05:27:18;;;;;;;4.15;3.03;;;14.50;99.90;;;;;;5071725;28;20480;-76
2021/08/17 05:29:43;;;;;;;6.55;3.78;;;14.70;99.90;;;;;;5071584;28;20113;-76
2021/08/17 05:32:09;;;;;;;3.97;2.92;;;14.90;99.90;;;;;;5071762;28;20052;-76
2021/08/17 05:34:35;;;;;;;3.97;3.03;;;15.20;99.90;;;;;;5070257;28;20048;-76
2021/08/17 05:37:01;;;;;;;5.95;3.63;;;15.60;99.90;;;;;;5071187;28;20021;-77
2021/08/17 05:39:26;;;;;;;3.78;2.85;;;15.90;99.90;;;;;;5071575;28;20040;-77
2021/08/17 05:41:52;;;;;;;9.25;3.38;;;16.20;99.90;;;;;;5069987;28;20021;-76
2021/08/17 05:44:18;;;;;;;3.88;2.85;;;16.20;99.90;;;;;;5071510;28;20028;-76
2021/08/17 05:46:44;;;;;;;5.65;3.10;;;16.20;99.90;;;;;;5057142;28;20068;-77
2021/08/17 05:49:10;;;;;;;3.78;2.67;;;16.10;99.90;;;;;;5057183;28;20472;-75
2021/08/17 05:51:36;;;;;;;5.28;2.53;;;16.20;99.90;;;;;;5057423;28;20112;-76
2021/08/17 05:54:02;;;;;;;5.22;3.05;;;16.20;99.90;;;;;;5051686;28;20509;-76
2021/08/17 05:56:27;;;;;;;4.68;2.70;;;16.20;99.90;;;;;;5051147;28;20056;-76
2021/08/17 05:58:53;;;;;;;4.28;3.00;;;16.00;99.90;;;;;;5068399;28;20020;-76
2021/08/17 06:01:18;;;;;;;4.32;3.40;;;16.30;99.90;;;;;;5072237;28;20020;-76
2021/08/17 06:03:44;;;;;;;3.95;2.92;;;16.20;99.90;;;;;;5088064;28;20021;-77
2021/08/17 06:06:10;;;;;;;4.05;3.45;;;16.40;99.90;;;;;;5091653;28;20036;-77
2021/08/17 06:08:36;;;;;;;7.32;3.22;;;16.40;99.90;;;;;;5091488;28;20055;-75
2021/08/17 06:11:01;;;;;;;5.25;3.00;;;16.20;99.90;;;;;;5075646;28;20033;-76
2021/08/17 06:13:27;;;;;;;4.75;3.22;;;15.80;99.90;;;;;;5068909;28;20028;-77
2021/08/17 06:15:54;;;;;;;5.95;3.30;;;15.50;99.90;;;;;;5091046;28;20019;-76
2021/08/17 06:18:19;;;;;;;4.53;2.92;;;15.30;99.90;;;;;;5084637;28;20029;-76
2021/08/17 06:20:45;;;;;;;5.35;3.53;;;14.90;99.90;;;;;;5069778;28;20029;-77
2021/08/17 06:23:10;;;;;;;5.72;3.38;;;14.90;99.90;;;;;;5085351;28;20016;-76
2021/08/17 06:25:36;;;;;;;4.95;3.58;;;14.70;99.90;;;;;;5095222;28;20031;-77
2021/08/17 06:28:08;;;;;;;4.15;3.10;;;14.70;99.90;;;;;;5064295;28;20029;-75
2021/08/17 06:30:34;;;;;;;4.03;3.25;;;14.70;99.90;;;;;;5054777;28;20393;-76
2021/08/17 06:32:59;;;;;;;5.55;3.55;;;14.70;99.90;;;;;;5053427;28;20021;-76
2021/08/17 06:35:25;;;;;;;4.30;3.42;;;14.80;99.90;;;;;;5076847;28;20039;-76
2021/08/17 06:37:52;;;;;;;5.13;3.80;;;14.80;99.90;;;;;;5093031;28;20053;-76
2021/08/17 06:40:17;;;;;;;5.07;4.10;;;14.80;99.90;;;;;;5087293;28;20085;-76
2021/08/17 06:42:43;;;;;;;3.55;2.92;;;14.90;99.90;;;;;;5074511;28;20099;-75
2021/08/17 06:45:09;;;;;;;5.82;3.95;;;15.10;99.90;;;;;;5073207;28;20024;-75
2021/08/17 06:47:46;;;;;;;6.95;3.35;;;15.20;99.90;;;;;;5062935;28;20108;-76
2021/08/17 06:50:11;;;;;;;4.75;3.33;;;15.30;99.90;;;;;;5055427;28;20021;-76
2021/08/17 06:52:37;;;;;;;4.32;3.63;;;15.40;99.90;;;;;;5065250;28;20021;-76
2021/08/17 06:55:02;;;;;;;4.88;3.80;;;15.50;99.90;;;;;;5055804;28;20043;-77
2021/08/17 06:57:28;;;;;;;5.72;3.78;;;15.80;99.90;;;;;;5080649;28;20021;-75
2021/08/17 06:59:54;;;;;;;5.22;3.83;;;15.70;99.90;;;;;;5093142;28;20032;-76
2021/08/17 07:02:20;;;;;;;7.47;4.15;;;15.60;99.90;;;;;;5093360;28;20054;-77
2021/08/17 07:04:45;;;;;;;5.28;3.05;;;15.60;99.90;;;;;;5094522;28;20038;-76
2021/08/17 07:07:11;;;;;;;7.85;4.28;;;15.80;99.90;;;;;;5094406;28;20074;-77
2021/08/17 07:09:36;;;;;;;5.95;4.13;;;15.80;99.90;;;;;;5089693;28;20020;-76
2021/08/17 07:12:02;;;;;;;6.45;4.32;;;15.70;99.90;;;;;;5094374;28;20055;-78
2021/08/17 07:14:27;;;;;;;8.75;4.53;;;15.80;99.90;;;;;;5092717;28;20016;-76
2021/08/17 07:16:53;;;;;;;4.97;3.78;;;15.70;99.90;;;;;;5094235;28;20070;-76
2021/08/17 07:19:19;;;;;;;5.97;4.25;;;15.80;99.90;;;;;;5092842;28;20042;-76
2021/08/17 07:21:45;;;;;;;7.68;4.50;;;15.90;99.90;;;;;;5094147;28;20020;-76
2021/08/17 07:24:10;;;;;;;5.65;4.10;;;16.00;99.90;;;;;;5093961;28;20490;-76
2021/08/17 07:26:36;;;;;;;6.97;4.72;;;16.10;99.90;;;;;;5094220;28;20047;-77
2021/08/17 07:29:01;;;;;;;9.25;5.00;;;16.00;99.90;;;;;;5094124;28;20031;-76
2021/08/17 07:31:27;;;;;;;5.90;3.80;;;16.10;99.90;;;;;;5093590;28;20032;-76
2021/08/17 07:33:52;;;;;;;9.57;4.20;;;16.20;99.90;;;;;;5094200;28;20052;-77
2021/08/17 07:36:18;;;;;;;6.28;4.45;;;16.50;99.90;;;;;;5092405;28;20024;-77
2021/08/17 07:38:43;;;;;;;6.85;4.55;;;16.60;99.90;;;;;;5092392;28;20415;-76
2021/08/17 07:41:09;;;;;;;5.05;4.40;;;16.60;99.90;;;;;;5092630;28;20471;-75
2021/08/17 07:43:34;;;;;;;5.75;4.10;;;16.60;99.90;;;;;;5093995;28;20024;-75
2021/08/17 07:46:00;;;;;;;5.38;4.47;;;16.70;99.90;;;;;;5092223;28;20031;-75
2021/08/17 07:48:26;;;;;;;5.35;3.85;;;16.60;99.90;;;;;;5093549;28;20099;-75
2021/08/17 07:50:51;;;;;;;6.20;4.15;;;16.80;99.90;;;;;;5076520;28;20032;-76
2021/08/17 07:53:17;;;;;;;6.20;4.15;;;16.90;99.90;;;;;;5051947;28;20381;-76
2021/08/17 07:55:43;;;;;;;5.72;4.07;;;17.00;99.90;;;;;;5053162;28;20025;-76
2021/08/17 07:58:09;;;;;;;4.13;3.72;;;17.30;99.90;;;;;;5053249;28;20017;-76
2021/08/17 08:00:35;;;;;;;5.20;4.70;;;17.70;99.90;;;;;;5051695;28;20110;-76
2021/08/17 08:03:00;;;;;;;4.95;4.07;;;17.50;99.90;;;;;;5051689;28;20489;-76
2021/08/17 08:05:26;;;;;;;6.80;4.05;;;17.50;99.90;;;;;;5052920;28;20405;-76
2021/08/17 08:07:52;;;;;;;4.18;3.72;;;17.30;99.90;;;;;;5052870;28;20382;-77
2021/08/17 08:10:17;;;;;;;5.75;4.32;;;17.30;99.90;;;;;;5051614;28;20025;-76
2021/08/17 08:12:43;;;;;;;7.13;4.20;;;17.10;99.90;;;;;;5051570;28;20388;-76
2021/08/17 08:15:11;;;;;;;6.38;4.18;;;17.10;99.90;;;;;;5052829;28;20408;-76
2021/08/17 08:17:36;;;;;;;5.32;4.30;;;17.10;99.90;;;;;;5052858;28;20017;-76
2021/08/17 08:20:03;;;;;;;6.95;4.32;;;17.20;99.90;;;;;;5052779;28;20500;-75
2021/08/17 08:22:28;;;;;;;7.85;4.70;;;17.20;99.90;;;;;;5051103;28;20507;-76
2021/08/17 08:24:54;;;;;;;5.97;4.03;;;16.60;99.90;;;;;;5051253;28;20030;-76
2021/08/17 08:27:19;;;;;;;4.15;3.75;;;17.10;99.90;;;;;;5052580;28;20428;-77
2021/08/17 08:29:45;;;;;;;6.72;4.65;;;17.40;99.90;;;;;;5052495;28;20025;-76
2021/08/17 08:32:11;;;;;;;4.68;3.63;;;17.80;99.90;;;;;;5052429;28;20100;-76
2021/08/17 08:34:37;;;;;;;4.50;3.90;;;17.80;99.90;;;;;;5052557;28;20020;-76
2021/08/17 08:37:03;;;;;;;6.60;3.78;;;17.70;99.90;;;;;;5052225;28;20513;-77
2021/08/17 08:39:29;;;;;;;6.43;4.47;;;17.50;99.90;;;;;;5052608;28;20433;-76
2021/08/17 08:41:55;;;;;;;5.32;4.20;;;17.50;99.90;;;;;;5052743;28;20021;-76
2021/08/17 08:44:21;;;;;;;6.93;3.83;;;17.20;99.90;;;;;;5053890;28;20029;-76
2021/08/17 08:46:47;;;;;;;5.47;4.35;;;17.30;99.90;;;;;;5052108;28;20025;-77
2021/08/17 08:49:14;;;;;;;4.70;3.53;;;17.10;99.90;;;;;;5052234;28;20062;-77
2021/08/17 08:51:39;;;;;;;5.25;4.03;;;17.30;99.90;;;;;;5050638;28;20503;-76
2021/08/17 08:54:06;;;;;;;6.68;4.07;;;17.30;99.90;;;;;;5052153;28;20024;-77
2021/08/17 08:56:32;;;;;;;4.32;3.92;;;17.10;99.90;;;;;;5052101;28;20428;-76
2021/08/17 08:58:58;;;;;;;6.13;4.00;;;17.10;99.90;;;;;;5052339;28;20032;-77
2021/08/17 09:01:25;;;;;;;6.70;4.43;;;17.10;99.90;;;;;;5052452;28;20049;-77
2021/08/17 09:03:53;;;;;;;4.97;3.83;;;17.10;99.90;;;;;;5051989;28;20393;-77
2021/08/17 09:06:20;;;;;;;4.45;4.05;;;17.20;99.90;;;;;;5052180;28;20025;-76
2021/08/17 09:08:46;;;;;;;4.35;3.65;;;17.80;99.90;;;;;;5050707;28;20025;-76
2021/08/17 09:11:20;;;;;;;5.07;3.60;;;18.20;99.90;;;;;;5050817;28;20083;-77
2021/08/17 09:13:47;;;;;;;6.65;3.95;;;18.00;99.90;;;;;;5089314;28;20507;-76
2021/08/17 09:16:23;;;;;;;4.00;3.55;;;18.10;99.90;;;;;;5091057;28;20031;-77
2021/08/17 09:18:50;;;;;;;5.07;3.88;;;18.40;99.90;;;;;;5092035;28;20103;-77
2021/08/17 09:21:15;;;;;;;5.00;3.92;;;18.60;99.90;;;;;;5092135;28;20027;-76
2021/08/17 09:23:41;;;;;;;4.43;4.00;;;18.30;99.90;;;;;;5092006;28;20447;-77
2021/08/17 09:26:22;;;;;;;6.22;4.32;;;18.60;99.90;;;;;;5092089;28;20032;-76
2021/08/17 09:28:55;;;;;;;;;;;18.70;99.70;;;;;;5092467;28;20479;-76
2021/08/17 09:31:32;;;;;;;5.35;3.65;;;18.50;98.80;;;;;;5090829;28;19961;-76
2021/08/17 09:33:58;;;;;;;5.05;3.80;;;18.30;98.70;;;;;;5091876;28;20024;-76
2021/08/17 09:36:23;;;;;;;4.82;3.40;;;18.10;99.40;;;;;;5092554;28;20390;-77
2021/08/17 09:38:49;;;;;;;5.60;3.95;;;17.80;99.10;;;;;;5092254;28;20024;-76
2021/08/17 09:41:23;;;;;;;4.65;3.75;;;17.70;99.20;;;;;;5091869;28;20051;-76
2021/08/17 09:44:05;;;;;;;5.80;4.38;;;18.00;99.90;;;;;;5091690;28;20107;-76
2021/08/17 09:46:35;;;;;;;4.38;3.88;;;18.30;99.60;;;;;;5091809;28;20062;-75
2021/08/17 09:49:21;;;;;;;5.38;3.30;;;18.60;99.20;;;;;;5090577;28;20032;-77
2021/08/17 09:51:47;;;;;;;4.72;4.00;;;18.80;97.70;;;;;;5060832;28;20017;-75
2021/08/17 09:54:20;;;;;;;6.20;4.38;;;19.20;97.50;;;;;;5054279;28;20023;-76
2021/08/17 09:56:56;;;;;;;5.82;4.20;;;19.20;97.50;;;;;;5055215;28;20017;-76
2021/08/17 09:59:23;;;;;;;4.35;3.60;;;18.90;96.80;;;;;;5055621;28;20485;-77
2021/08/17 10:01:50;;;;;;;4.30;3.72;;;18.80;97.80;;;;;;5054045;28;20048;-76
2021/08/17 10:04:18;;;;;;;5.05;3.38;;;18.80;96.80;;;;;;5055267;28;20105;-76
2021/08/17 10:06:44;;;;;;;7.05;3.67;;;18.80;96.30;;;;;;5053595;28;20028;-76
2021/08/17 10:09:13;;;;;;;3.67;2.95;;;19.00;95.90;;;;;;5055366;28;20025;-77
2021/08/17 10:11:41;;;;;;;6.55;3.20;;;18.60;94.70;;;;;;5054954;28;20484;-76
2021/08/17 10:14:06;;;;;;;7.43;3.55;;;18.40;95.10;;;;;;5054376;28;20159;-75
2021/08/17 10:16:33;;;;;;;5.15;3.53;;;18.20;95.50;;;;;;5055381;28;20066;-76
2021/08/17 10:18:59;;;;;;;3.53;3.08;;;18.10;95.90;;;;;;5053677;28;20447;-77
2021/08/17 10:21:25;;;;;;;3.78;3.38;;;17.90;95.80;;;;;;5054956;28;20079;-75
2021/08/17 10:23:51;;;;;;;5.35;3.45;;;17.80;97.40;;;;;;5055629;28;20052;-77
2021/08/17 10:26:31;;;;;;;5.90;4.00;;;17.80;95.70;;;;;;5054901;28;20036;-76
2021/08/17 10:28:57;;;;;;;3.72;3.22;;;17.90;96.50;;;;;;5055311;28;20043;-77
2021/08/17 10:31:31;;;;;;;6.13;3.67;;;18.40;95.80;;;;;;5053656;28;20037;-75
2021/08/17 10:34:13;;;;;;;3.63;3.20;;;18.50;95.20;;;;;;5055117;28;20025;-75
2021/08/17 10:36:44;;;;;;;3.92;3.20;;;18.30;93.40;;;;;;5053274;28;20021;-76
2021/08/17 10:39:18;;;;;;;4.65;2.67;;;18.50;94.30;;;;;;5054921;28;20021;-76
2021/08/17 10:41:47;;;;;;;4.95;3.58;;;18.40;94.50;;;;;;5054581;28;20021;-77
2021/08/17 10:44:15;;;;;;;4.65;3.15;;;18.20;94.70;;;;;;5055563;28;20029;-76
2021/08/17 10:46:44;;;;;;;4.53;3.63;;;18.60;94.60;;;;;;5059606;28;20025;-76
2021/08/17 10:49:29;;;;;;;5.30;3.13;;;18.90;94.50;;;;;;5077880;28;20037;-77
2021/08/17 10:51:58;;;;;;;4.90;3.80;;;18.30;94.20;;;;;;5076652;28;20149;-76
2021/08/17 10:54:24;;;;;;;7.25;3.92;;;18.80;95.00;;;;;;5079136;28;20039;-77
2021/08/17 10:56:50;;;;;;;5.28;3.58;;;19.00;94.10;;;;;;5078671;28;20024;-78
2021/08/17 10:59:41;;;;;;;5.97;3.38;;;19.00;94.30;;;;;;5079681;28;20021;-78
2021/08/17 11:02:08;;;;;;;4.75;3.65;;;18.80;95.00;;;;;;5078928;28;20021;-77
2021/08/17 11:04:44;;;;;;;5.53;4.00;;;19.50;94.80;;;;;;5078896;28;20024;-77
2021/08/17 11:07:26;;;;;;;8.98;4.65;;;19.40;95.10;;;;;;5079679;28;20073;-78
2021/08/17 11:09:54;;;;;;;3.97;3.20;;;19.00;93.50;;;;;;5078983;28;20043;-78
2021/08/17 11:12:20;;;;;;;4.07;3.28;;;18.90;94.00;;;;;;5079370;28;20032;-77
2021/08/17 11:14:47;;;;;;;5.30;3.25;;;19.00;94.50;;;;;;5067008;28;20048;-75
2021/08/17 11:17:16;;;;;;;6.25;3.53;;;19.10;95.00;;;;;;5079793;28;20021;-78
2021/08/17 11:19:45;;;;;;;5.25;3.17;;;19.30;94.70;;;;;;5074551;28;20119;-75
2021/08/17 11:22:26;;;;;;;3.58;2.90;;;19.10;93.30;;;;;;5076636;28;20017;-76
2021/08/17 11:24:59;;;;;;;4.57;3.08;;;19.00;94.90;;;;;;5089448;28;20024;-77
2021/08/17 11:27:35;;;;;;;5.93;3.55;;;18.50;93.80;;;;;;5098934;28;20017;-77
2021/08/17 11:30:08;;;;;;;3.35;2.67;;;18.70;93.80;;;;;;5098982;28;20035;-76
2021/08/17 11:32:57;;;;;;;3.10;2.40;;;18.60;92.30;;;;;;5098627;28;20076;-78
2021/08/17 11:35:26;;;;;;;3.65;2.33;;;18.70;91.60;;;;;;5097988;28;20008;-77
2021/08/17 11:37:53;;;;;;;4.07;2.78;;;18.90;92.30;;;;;;5098776;28;20016;-79
2021/08/17 11:40:22;;;;;;;4.38;2.70;;;18.90;92.80;;;;;;5097222;28;20020;-78
2021/08/17 11:42:51;;;;;;;3.30;2.55;;;19.00;92.10;;;;;;5098181;28;20034;-78
2021/08/17 11:45:18;;;;;;;3.40;2.78;;;19.10;93.40;;;;;;5097317;28;20036;-76
2021/08/17 11:47:49;;;;;;;4.03;2.70;;;19.00;92.00;;;;;;5091331;28;20025;-76
2021/08/17 11:50:21;;;;;;;4.72;3.22;;;19.00;92.60;;;;;;5077342;28;20124;-75
2021/08/17 11:52:49;;;;;;;3.25;2.55;;;19.10;92.50;;;;;;5060509;28;20033;-76
2021/08/17 11:55:20;;;;;;;5.00;3.10;;;18.90;92.60;;;;;;5056199;28;20021;-74
2021/08/17 11:57:46;;;;;;;4.00;2.78;;;18.60;91.70;;;;;;5054778;28;20025;-76
2021/08/17 12:00:16;;;;;;;3.25;2.60;;;18.50;93.00;;;;;;5055664;28;20521;-76
2021/08/17 12:02:53;;;;;;;3.17;2.70;;;18.60;92.20;;;;;;5054360;28;20103;-76
2021/08/17 12:05:22;;;;;;;4.60;2.50;;;18.80;92.30;;;;;;5054995;28;20024;-75
2021/08/17 12:07:50;;;;;;;4.88;3.67;;;18.80;92.40;;;;;;5053552;28;20097;-76
2021/08/17 12:10:19;;;;;;;8.07;3.78;;;19.20;92.90;;;;;;5053444;28;20100;-76
2021/08/17 12:12:59;;;;;;;3.15;2.83;;;19.30;92.00;;;;;;5052015;28;20032;-76
2021/08/17 12:15:48;;;;;;;2.78;2.53;;;19.60;92.30;;;;;;5053589;28;20025;-75
2021/08/17 12:18:16;;;;;;;2.72;2.28;;;19.80;90.50;;;;;;5052321;28;20219;-77
2021/08/17 12:20:56;;;;;;;3.42;2.45;;;19.70;90.80;;;;;;5053630;28;20043;-75
2021/08/17 12:23:43;;;;;;;4.07;2.53;;;19.70;87.50;;;;;;5053681;28;20029;-76
2021/08/17 12:26:29;;;;;;;4.00;2.28;;;19.30;89.40;;;;;;5053299;28;20055;-76
2021/08/17 12:28:56;;;;;;;3.45;3.03;;;19.00;90.30;;;;;;5052930;28;20067;-75
2021/08/17 12:31:33;;;;;;;3.42;2.60;;;19.20;90.40;;;;;;5051725;28;20029;-76
2021/08/17 12:34:05;;;;;;;4.22;2.67;;;19.30;87.80;;;;;;5052789;28;20059;-76
2021/08/17 12:36:46;;;;;;;4.70;3.55;;;19.30;90.00;;;;;;5052601;28;20527;-77
2021/08/17 12:39:12;;;;;;;;;;;19.80;90.30;;;;;;5052239;28;20028;-76
2021/08/17 12:41:47;;;;;;;5.07;2.70;;;20.20;88.10;;;;;;5051496;28;19905;-76
2021/08/17 12:44:31;;;;;;;3.00;2.33;;;20.50;89.40;;;;;;5052547;28;20021;-76
2021/08/17 12:46:56;;;;;;;4.50;3.13;;;19.80;89.50;;;;;;5052717;28;20458;-75
2021/08/17 12:49:22;;;;;;;4.35;3.40;;;20.00;90.40;;;;;;5052541;28;20058;-77